Time;durP1;ratioP1;P1;durP2;ratioP2;P2;SDS_P1;SDS_P2;PMS_P1;PMS_P2;Temp;Humidity;BMP_temperature;BMP_pressure;BME280_temperature;BME280_humidity;BME280_pressure;Samples;Min_cycle;Max_cycle;Signal;HPM_P1;HPM_P2
2021/01/06 00:00:48;;;;;;;12.93;3.45;;;2.10;99.90;;;;;;5011598;28;20541;-92
2021/01/06 00:03:17;;;;;;;5.55;3.92;;;2.10;99.90;;;;;;5028289;28;20495;-88
2021/01/06 00:05:44;;;;;;;5.70;2.78;;;2.10;99.90;;;;;;5009375;28;20088;-93
2021/01/06 00:08:10;;;;;;;5.55;3.30;;;2.20;99.90;;;;;;5016794;28;20038;-90
2021/01/06 00:10:36;;;;;;;1.85;0.98;;;2.20;99.90;;;;;;5012276;28;20124;-93
2021/01/06 00:13:02;;;;;;;6.13;3.05;;;2.20;99.90;;;;;;5044550;28;20124;-90
2021/01/06 00:15:32;;;;;;;8.45;2.67;;;2.30;99.90;;;;;;5025927;28;20037;-92
2021/01/06 00:17:58;;;;;;;9.60;3.55;;;2.20;99.90;;;;;;5023690;28;20042;-91
2021/01/06 00:20:26;;;;;;;8.25;3.10;;;2.20;99.90;;;;;;5008712;28;20044;-92
2021/01/06 00:22:52;;;;;;;8.25;3.83;;;2.20;99.90;;;;;;5010485;28;20049;-91
2021/01/06 00:25:21;;;;;;;3.38;3.08;;;2.20;99.90;;;;;;5008569;28;20046;-88
2021/01/06 00:27:47;;;;;;;9.77;3.28;;;2.20;99.90;;;;;;5022803;28;20482;-91
2021/01/06 00:30:18;;;;;;;13.05;3.33;;;2.20;99.90;;;;;;5010835;28;20038;-91
2021/01/06 00:32:44;;;;;;;5.60;2.97;;;2.20;99.90;;;;;;5026745;28;20037;-93
2021/01/06 00:35:10;;;;;;;7.95;3.55;;;2.20;99.90;;;;;;5024746;28;20064;-92
2021/01/06 00:37:36;;;;;;;11.25;3.58;;;2.20;99.90;;;;;;5016150;28;20104;-92
2021/01/06 00:40:03;;;;;;;7.95;3.30;;;2.20;99.90;;;;;;5027940;28;20041;-92
2021/01/06 00:42:29;;;;;;;6.88;2.60;;;2.20;99.90;;;;;;5017087;28;20141;-93
2021/01/06 00:44:55;;;;;;;12.63;3.58;;;2.10;99.90;;;;;;5024088;28;20128;-92
2021/01/06 00:47:21;;;;;;;10.07;3.42;;;2.20;99.90;;;;;;5008547;28;20121;-90
2021/01/06 00:49:46;;;;;;;6.03;3.50;;;2.10;99.90;;;;;;5022786;28;20037;-92
2021/01/06 00:52:13;;;;;;;8.65;3.72;;;2.20;99.90;;;;;;5015817;28;20038;-92
2021/01/06 00:54:41;;;;;;;11.18;3.72;;;2.20;99.90;;;;;;5025573;28;20155;-93
2021/01/06 00:57:07;;;;;;;11.80;5.07;;;2.20;99.90;;;;;;5003057;28;20466;-93
2021/01/06 00:59:32;;;;;;;5.05;3.53;;;2.20;99.90;;;;;;4994273;28;20044;-93
2021/01/06 01:01:58;;;;;;;9.05;3.60;;;2.30;99.90;;;;;;5003414;28;20041;-92
2021/01/06 01:04:24;;;;;;;8.32;3.65;;;2.30;99.90;;;;;;5043695;28;20055;-92
2021/01/06 01:06:52;;;;;;;8.18;3.55;;;2.30;99.90;;;;;;5015557;28;20072;-90
2021/01/06 01:09:19;;;;;;;6.18;3.13;;;2.30;99.90;;;;;;5012158;28;20041;-88
2021/01/06 01:11:45;;;;;;;6.60;3.03;;;2.30;99.90;;;;;;4991343;28;20070;-91
2021/01/06 01:14:11;;;;;;;8.73;3.72;;;2.30;99.90;;;;;;5019930;28;20062;-91
2021/01/06 01:16:42;;;;;;;6.60;4.10;;;2.30;99.90;;;;;;5028502;28;20060;-92
2021/01/06 01:19:09;;;;;;;7.88;3.85;;;2.40;99.90;;;;;;5029248;28;20041;-92
2021/01/06 01:21:35;;;;;;;10.30;3.85;;;2.30;99.90;;;;;;5011948;28;20419;-90
2021/01/06 01:24:01;;;;;;;8.70;3.47;;;2.30;99.90;;;;;;5027791;28;20068;-93
2021/01/06 01:26:27;;;;;;;10.43;4.25;;;2.40;99.90;;;;;;5010928;28;20063;-91
2021/01/06 01:28:53;;;;;;;13.75;4.20;;;2.40;99.90;;;;;;5012020;28;20475;-93
2021/01/06 01:31:19;;;;;;;7.53;3.55;;;2.40;99.90;;;;;;5031011;28;20033;-91
2021/01/06 01:33:46;;;;;;;8.43;3.60;;;2.40;99.90;;;;;;5024126;28;20502;-92
2021/01/06 01:36:11;;;;;;;9.90;3.50;;;2.40;99.90;;;;;;5022169;28;20387;-93
2021/01/06 01:38:37;;;;;;;11.80;3.95;;;2.40;99.90;;;;;;5028373;28;20124;-89
2021/01/06 01:41:10;;;;;;;12.70;3.88;;;2.30;99.90;;;;;;5028022;28;20067;-92
2021/01/06 01:43:36;;;;;;;12.15;3.90;;;2.40;99.90;;;;;;5023570;28;20073;-91
2021/01/06 01:46:03;;;;;;;5.50;2.70;;;2.40;99.90;;;;;;5034622;28;20084;-91
2021/01/06 01:48:42;;;;;;;6.60;3.97;;;2.40;99.90;;;;;;5027892;28;20037;-91
2021/01/06 01:51:17;;;;;;;3.45;1.50;;;2.40;99.90;;;;;;5024756;28;20041;-92
2021/01/06 01:54:03;;;;;;;6.78;3.35;;;2.40;99.90;;;;;;5040942;28;20042;-92
2021/01/06 01:56:47;;;;;;;14.05;3.47;;;2.40;99.90;;;;;;5027006;28;20090;-91
2021/01/06 01:59:42;;;;;;;10.00;3.78;;;2.30;99.90;;;;;;5014897;28;20045;-91
2021/01/06 02:02:21;;;;;;;8.70;3.40;;;2.30;99.90;;;;;;5036948;28;20048;-91
2021/01/06 02:04:54;;;;;;;7.90;2.50;;;2.30;99.90;;;;;;5026956;28;20158;-89
2021/01/06 02:07:25;;;;;;;3.45;1.33;;;2.30;99.90;;;;;;5028422;28;20168;-90
2021/01/06 02:09:54;;;;;;;3.83;1.92;;;2.40;99.90;;;;;;5007059;28;20133;-91
2021/01/06 02:12:58;;;;;;;9.05;2.95;;;2.40;99.90;;;;;;5021142;28;20464;-92
2021/01/06 02:15:34;;;;;;;10.35;3.67;;;2.30;99.90;;;;;;5027687;28;20144;-87
2021/01/06 02:18:00;;;;;;;8.90;3.63;;;2.40;99.90;;;;;;5028036;28;20041;-90
2021/01/06 02:20:27;;;;;;;3.63;2.80;;;2.30;99.90;;;;;;5027573;28;20041;-87
2021/01/06 02:22:55;;;;;;;10.02;2.97;;;2.40;99.90;;;;;;5027789;28;20038;-91
2021/01/06 02:25:23;;;;;;;10.88;3.55;;;2.40;99.90;;;;;;5027493;28;20054;-91
2021/01/06 02:27:50;;;;;;;6.47;3.63;;;2.40;99.90;;;;;;5027824;28;20202;-93
2021/01/06 02:30:17;;;;;;;19.38;4.28;;;2.40;99.90;;;;;;5010923;28;20061;-92
2021/01/06 02:32:44;;;;;;;7.10;3.30;;;2.40;99.90;;;;;;5027843;28;20069;-92
2021/01/06 02:35:11;;;;;;;8.48;2.85;;;2.40;99.90;;;;;;5027792;28;20056;-88
2021/01/06 02:37:38;;;;;;;8.15;3.17;;;2.40;99.90;;;;;;4991821;28;20490;-91
2021/01/06 02:40:06;;;;;;;7.20;2.88;;;2.30;99.90;;;;;;5031075;28;20038;-92
2021/01/06 02:42:32;;;;;;;9.32;3.67;;;2.40;99.90;;;;;;5030221;28;20052;-92
2021/01/06 02:44:58;;;;;;;5.82;3.30;;;2.40;99.90;;;;;;5031200;28;20030;-89
2021/01/06 02:47:25;;;;;;;14.07;2.95;;;2.30;99.90;;;;;;5031112;28;20117;-92
2021/01/06 02:49:51;;;;;;;6.25;2.90;;;2.30;99.90;;;;;;5013876;28;20076;-91
2021/01/06 02:52:24;;;;;;;10.25;3.45;;;2.30;99.90;;;;;;5027501;28;20073;-91
2021/01/06 02:54:53;;;;;;;9.55;3.15;;;2.40;99.90;;;;;;5026491;28;20892;-91
2021/01/06 02:57:21;;;;;;;7.60;3.40;;;2.30;99.90;;;;;;5015313;28;20046;-92
2021/01/06 02:59:50;;;;;;;8.00;3.40;;;2.40;99.90;;;;;;5004611;28;20034;-90
2021/01/06 03:02:21;;;;;;;9.02;3.30;;;2.50;99.90;;;;;;5025198;28;20029;-92
2021/01/06 03:05:32;;;;;;;5.63;2.58;;;2.40;99.90;;;;;;5029236;28;20056;-92
2021/01/06 03:07:58;;;;;;;5.35;2.70;;;2.40;99.90;;;;;;5023438;28;20518;-91
2021/01/06 03:10:24;;;;;;;7.70;3.13;;;2.40;99.90;;;;;;5031915;28;20034;-93
2021/01/06 03:12:52;;;;;;;9.43;3.00;;;2.40;99.90;;;;;;5029618;28;20617;-90
2021/01/06 03:15:21;;;;;;;7.95;3.67;;;2.40;99.90;;;;;;5031436;28;20168;-91
2021/01/06 03:17:48;;;;;;;15.13;3.35;;;2.50;99.90;;;;;;5029234;28;20081;-91
2021/01/06 03:20:35;;;;;;;5.15;2.83;;;2.40;99.90;;;;;;5031405;28;20124;-91
2021/01/06 03:23:29;;;;;;;8.38;3.05;;;2.40;99.90;;;;;;5031629;28;20487;-91
2021/01/06 03:25:58;;;;;;;9.50;3.55;;;2.50;99.90;;;;;;5028260;28;20487;-91
2021/01/06 03:28:26;;;;;;;9.23;2.53;;;2.40;99.90;;;;;;5030434;28;20037;-91
2021/01/06 03:30:55;;;;;;;8.27;2.58;;;2.40;99.90;;;;;;5028464;28;20037;-90
2021/01/06 03:33:27;;;;;;;10.10;3.80;;;2.40;99.80;;;;;;5022023;28;20033;-92
2021/01/06 03:36:00;;;;;;;9.65;3.78;;;2.40;99.90;;;;;;5031422;28;20033;-92
2021/01/06 03:38:35;;;;;;;7.30;1.95;;;2.40;99.90;;;;;;5026678;28;20072;-90
2021/01/06 03:41:02;;;;;;;3.47;1.48;;;2.40;99.90;;;;;;5023594;28;20041;-92
2021/01/06 03:43:33;;;;;;;12.83;3.10;;;2.40;99.80;;;;;;5030245;28;20029;-89
2021/01/06 03:46:09;;;;;;;12.52;2.88;;;2.40;99.90;;;;;;5026254;28;20293;-92
2021/01/06 03:48:52;;;;;;;7.85;2.83;;;2.30;99.90;;;;;;5029217;28;20038;-90
2021/01/06 03:51:38;;;;;;;4.75;2.63;;;2.40;99.90;;;;;;5030898;28;20046;-89
2021/01/06 03:54:29;;;;;;;7.35;2.60;;;2.30;99.90;;;;;;5030701;28;20060;-93
2021/01/06 03:56:58;;;;;;;7.40;3.13;;;2.30;99.90;;;;;;5028763;28;20264;-91
2021/01/06 03:59:29;;;;;;;9.77;2.72;;;2.30;99.90;;;;;;5026482;28;20061;-92
2021/01/06 04:01:54;;;;;;;;;;;2.30;99.90;;;;;;5032815;28;20487;-93
2021/01/06 04:04:32;;;;;;;3.95;2.28;;;2.30;99.90;;;;;;5030049;28;19924;-92
2021/01/06 04:07:00;;;;;;;4.57;2.53;;;2.30;99.90;;;;;;5045490;28;20558;-90
2021/01/06 04:09:30;;;;;;;7.60;2.88;;;2.30;99.90;;;;;;5029245;28;20042;-90
2021/01/06 04:12:05;;;;;;;10.77;2.95;;;2.20;99.90;;;;;;5028530;28;20719;-90
2021/01/06 04:14:31;;;;;;;5.72;2.00;;;2.30;99.90;;;;;;5030153;28;20108;-91
2021/01/06 04:17:12;;;;;;;14.40;3.35;;;2.30;99.90;;;;;;5029689;28;20153;-91
2021/01/06 04:19:39;;;;;;;;;;;2.30;99.90;;;;;;5028820;28;20053;-89
2021/01/06 04:22:04;;;;;;;6.93;2.67;;;2.30;99.90;;;;;;5028395;28;19921;-91
2021/01/06 04:24:30;;;;;;;4.47;2.38;;;2.20;99.90;;;;;;5024271;28;20048;-92
2021/01/06 04:26:56;;;;;;;7.72;2.05;;;2.20;99.90;;;;;;5006306;28;20716;-90
2021/01/06 04:29:22;;;;;;;5.63;2.58;;;2.20;99.90;;;;;;5023969;28;20038;-92
2021/01/06 04:31:48;;;;;;;6.70;2.50;;;2.20;99.90;;;;;;5011781;28;20061;-91
2021/01/06 04:34:13;;;;;;;8.35;2.40;;;2.20;99.90;;;;;;5028542;28;20076;-91
2021/01/06 04:36:39;;;;;;;3.45;1.90;;;2.20;99.90;;;;;;5024835;28;20069;-89
2021/01/06 04:39:06;;;;;;;9.52;2.42;;;2.20;99.90;;;;;;5036865;28;20044;-92
2021/01/06 04:41:40;;;;;;;7.28;2.45;;;2.20;99.90;;;;;;5027247;28;20553;-92
2021/01/06 04:44:42;;;;;;;1.80;0.93;;;2.20;99.90;;;;;;5036119;28;20042;-91
2021/01/06 04:47:45;;;;;;;8.18;2.70;;;2.20;99.90;;;;;;5022928;28;20037;-92
2021/01/06 04:50:39;;;;;;;9.70;2.85;;;2.20;99.90;;;;;;5011485;28;20072;-92
2021/01/06 04:53:23;;;;;;;5.57;2.20;;;2.20;99.90;;;;;;5027509;28;20099;-92
2021/01/06 04:55:58;;;;;;;12.15;3.40;;;2.20;99.90;;;;;;5016578;28;20029;-93
2021/01/06 04:58:53;;;;;;;5.60;2.15;;;2.20;99.90;;;;;;5029181;28;20047;-92
2021/01/06 05:01:39;;;;;;;3.17;1.83;;;2.20;99.90;;;;;;5022072;28;20490;-92
2021/01/06 05:04:27;;;;;;;4.55;2.33;;;2.10;99.90;;;;;;5012670;28;20044;-93
2021/01/06 05:07:02;;;;;;;8.23;2.75;;;2.20;99.90;;;;;;5024680;28;20037;-92
2021/01/06 05:09:34;;;;;;;6.82;2.35;;;2.20;99.90;;;;;;5022432;28;20029;-93
2021/01/06 05:12:12;;;;;;;4.93;1.52;;;2.20;99.90;;;;;;5012439;28;20034;-92
2021/01/06 05:14:51;;;;;;;2.53;1.77;;;2.20;99.90;;;;;;5041112;28;20034;-88
2021/01/06 05:17:16;;;;;;;2.85;1.25;;;2.20;99.90;;;;;;5029454;28;20534;-90
2021/01/06 05:19:46;;;;;;;6.70;1.60;;;2.20;99.90;;;;;;5027766;28;20132;-88
2021/01/06 05:22:12;;;;;;;4.47;2.38;;;2.30;99.90;;;;;;5029463;28;20034;-91
2021/01/06 05:24:47;;;;;;;5.32;1.45;;;2.20;99.90;;;;;;5011065;28;20044;-91
2021/01/06 05:27:13;;;;;;;3.13;1.20;;;2.20;99.90;;;;;;5027938;28;20046;-92
2021/01/06 05:29:46;;;;;;;6.68;2.25;;;2.30;99.90;;;;;;5020486;28;20096;-91
2021/01/06 05:32:39;;;;;;;10.73;1.77;;;2.20;99.90;;;;;;5030581;28;20038;-93
2021/01/06 05:35:09;;;;;;;12.65;2.40;;;2.20;99.90;;;;;;5023088;28;20487;-91
2021/01/06 05:37:35;;;;;;;9.35;1.17;;;2.30;99.40;;;;;;5028820;28;20112;-92
2021/01/06 05:40:13;;;;;;;3.35;1.55;;;2.30;99.70;;;;;;5014926;28;20201;-93
2021/01/06 05:42:50;;;;;;;9.65;2.50;;;2.30;99.50;;;;;;5011852;28;20087;-92
2021/01/06 05:45:19;;;;;;;2.63;1.52;;;2.30;99.70;;;;;;5027844;28;20490;-93
2021/01/06 05:47:51;;;;;;;13.35;1.73;;;2.30;99.50;;;;;;5028616;28;20034;-90
2021/01/06 05:50:33;;;;;;;7.43;1.67;;;2.30;99.70;;;;;;5027752;28;20848;-93
2021/01/06 05:53:14;;;;;;;8.18;1.88;;;2.30;99.70;;;;;;5028130;28;20065;-91
2021/01/06 05:55:44;;;;;;;2.70;2.00;;;2.20;99.50;;;;;;5028911;28;20057;-93
2021/01/06 05:58:22;;;;;;;2.17;1.23;;;2.30;99.50;;;;;;5027777;28;20048;-93
2021/01/06 06:00:52;;;;;;;1.42;0.80;;;2.30;99.40;;;;;;5028545;28;20034;-92
2021/01/06 06:03:51;;;;;;;4.25;0.85;;;2.30;99.30;;;;;;5025159;28;20046;-91
2021/01/06 06:06:42;;;;;;;4.63;1.65;;;2.30;99.20;;;;;;5008613;28;20041;-93
2021/01/06 06:09:33;;;;;;;8.10;1.85;;;2.30;99.20;;;;;;5028337;28;20044;-91
2021/01/06 06:12:10;;;;;;;4.15;1.77;;;2.30;99.20;;;;;;5031930;28;20407;-93
2021/01/06 06:14:54;;;;;;;3.13;1.45;;;2.30;99.20;;;;;;5032552;28;20030;-91
2021/01/06 06:17:39;;;;;;;4.72;1.95;;;2.30;99.20;;;;;;5028702;28;20121;-92
2021/01/06 06:20:32;;;;;;;2.60;1.55;;;2.30;99.10;;;;;;5032228;28;20211;-93
2021/01/06 06:23:20;;;;;;;5.20;2.30;;;2.30;98.70;;;;;;5030459;28;20042;-92
2021/01/06 06:26:18;;;;;;;6.78;2.20;;;2.30;99.10;;;;;;5031902;28;20387;-89
2021/01/06 06:29:23;;;;;;;4.80;0.88;;;2.30;98.90;;;;;;5023203;28;20045;-89
2021/01/06 06:31:55;;;;;;;9.68;2.10;;;2.30;98.20;;;;;;5010240;28;20056;-89
2021/01/06 06:34:36;;;;;;;8.27;1.98;;;2.40;98.70;;;;;;5005599;28;20715;-92
2021/01/06 06:37:11;;;;;;;2.15;1.40;;;2.40;98.50;;;;;;5030583;28;20486;-92
2021/01/06 06:39:39;;;;;;;5.93;1.83;;;2.40;98.10;;;;;;5031115;28;20124;-92
2021/01/06 06:42:13;;;;;;;4.07;1.55;;;2.40;98.10;;;;;;5031685;28;20183;-92
2021/01/06 06:45:02;;;;;;;8.25;1.80;;;2.40;97.90;;;;;;5030986;28;20044;-93
2021/01/06 06:47:51;;;;;;;7.50;1.65;;;2.40;97.90;;;;;;5025251;28;20049;-93
2021/01/06 06:50:39;;;;;;;5.53;1.55;;;2.30;97.70;;;;;;5023933;28;20041;-91
2021/01/06 06:53:30;;;;;;;3.95;1.15;;;2.40;97.90;;;;;;5030069;28;20038;-90
2021/01/06 06:56:21;;;;;;;4.82;1.77;;;2.40;97.30;;;;;;5030545;28;20044;-93
2021/01/06 06:59:05;;;;;;;;;;;2.40;97.80;;;;;;5032345;28;20112;-88
2021/01/06 07:01:36;;;;;;;9.40;1.83;;;2.40;98.00;;;;;;5036791;28;19921;-93
2021/01/06 07:04:42;;;;;;;5.07;2.17;;;2.40;98.30;;;;;;5029636;28;20073;-91
2021/01/06 07:07:24;;;;;;;6.45;1.83;;;2.40;98.00;;;;;;5008704;28;20310;-93
2021/01/06 07:09:50;;;;;;;3.85;1.45;;;2.40;97.30;;;;;;4976749;28;20551;-89
2021/01/06 07:12:17;;;;;;;3.78;1.52;;;2.40;97.40;;;;;;5003171;28;20050;-92
2021/01/06 07:14:53;;;;;;;5.32;1.40;;;2.40;97.20;;;;;;5030408;28;20029;-93
2021/01/06 07:17:36;;;;;;;6.10;1.60;;;2.40;96.90;;;;;;5031885;28;20038;-93
2021/01/06 07:20:12;;;;;;;5.70;1.95;;;2.40;97.30;;;;;;5029815;28;20044;-92
2021/01/06 07:22:56;;;;;;;3.70;1.70;;;2.50;97.20;;;;;;5030528;28;20098;-93
2021/01/06 07:25:28;;;;;;;5.53;1.80;;;2.50;97.50;;;;;;5030236;28;20068;-91
2021/01/06 07:28:01;;;;;;;5.75;1.40;;;2.60;97.60;;;;;;5029933;28;20472;-93
2021/01/06 07:30:35;;;;;;;11.57;1.95;;;2.60;98.30;;;;;;5030528;28;20045;-93
2021/01/06 07:33:49;;;;;;;6.20;1.83;;;2.60;97.90;;;;;;5030688;28;20091;-91
2021/01/06 07:36:18;;;;;;;11.70;2.35;;;2.60;97.20;;;;;;5029276;28;20402;-94
2021/01/06 07:38:47;;;;;;;9.38;1.90;;;2.50;97.50;;;;;;5030322;28;20052;-93
2021/01/06 07:41:14;;;;;;;3.90;1.45;;;2.60;96.90;;;;;;5029585;28;20367;-93
2021/01/06 07:43:57;;;;;;;5.43;2.10;;;2.50;96.60;;;;;;5031373;28;20068;-92
2021/01/06 07:46:23;;;;;;;10.98;1.95;;;2.50;96.80;;;;;;5029983;28;20052;-93
2021/01/06 07:49:13;;;;;;;6.00;1.92;;;2.50;97.20;;;;;;5031218;28;20379;-90
2021/01/06 07:51:58;;;;;;;3.90;1.93;;;2.50;97.40;;;;;;5027977;28;20088;-93
2021/01/06 07:54:47;;;;;;;4.25;1.67;;;2.50;97.50;;;;;;5021625;28;20045;-92
2021/01/06 07:57:22;;;;;;;3.30;1.70;;;2.50;97.70;;;;;;5029054;28;20045;-93
2021/01/06 07:59:55;;;;;;;7.10;2.78;;;2.40;97.70;;;;;;5029725;28;20113;-91
2021/01/06 08:02:39;;;;;;;4.20;1.70;;;2.40;97.70;;;;;;5030112;28;20041;-91
2021/01/06 08:05:28;;;;;;;5.38;1.40;;;2.40;97.60;;;;;;5029015;28;20386;-91
2021/01/06 08:08:21;;;;;;;10.55;1.92;;;2.40;97.40;;;;;;5020194;28;20040;-90
2021/01/06 08:10:49;;;;;;;11.70;1.85;;;2.50;97.80;;;;;;5027755;28;20106;-93
2021/01/06 08:13:20;;;;;;;10.55;2.30;;;2.50;97.90;;;;;;5029269;28;20041;-93
2021/01/06 08:15:50;;;;;;;5.20;1.83;;;2.50;98.00;;;;;;5026857;28;20034;-91
2021/01/06 08:18:44;;;;;;;5.40;1.80;;;2.50;98.00;;;;;;5025302;28;20061;-93
2021/01/06 08:21:21;;;;;;;3.33;0.98;;;2.50;97.80;;;;;;5012924;28;20042;-93
2021/01/06 08:24:30;;;;;;;1.48;0.95;;;2.50;97.80;;;;;;5026189;28;20483;-92
2021/01/06 08:26:59;;;;;;;3.88;1.48;;;2.50;98.00;;;;;;5011713;28;20149;-91
2021/01/06 08:29:26;;;;;;;3.50;1.73;;;2.40;98.80;;;;;;5026253;28;20044;-91
2021/01/06 08:31:57;;;;;;;18.80;2.17;;;2.30;98.90;;;;;;5030632;28;20040;-92
2021/01/06 08:34:38;;;;;;;7.20;1.88;;;2.20;99.20;;;;;;5029747;28;20029;-93
2021/01/06 08:37:06;;;;;;;2.78;2.03;;;2.20;99.40;;;;;;5027881;28;20124;-93
2021/01/06 08:39:38;;;;;;;2.00;1.38;;;2.20;99.10;;;;;;5029762;28;20033;-93
2021/01/06 08:42:10;;;;;;;6.03;2.05;;;2.10;99.10;;;;;;5028123;28;20041;-92
2021/01/06 08:44:55;;;;;;;16.40;2.50;;;2.10;99.10;;;;;;5029792;28;20372;-93
2021/01/06 08:47:29;;;;;;;9.55;2.25;;;2.20;99.00;;;;;;5028360;28;20042;-92
2021/01/06 08:50:10;;;;;;;6.10;1.85;;;2.10;99.00;;;;;;5025893;28;20475;-89
2021/01/06 08:52:39;;;;;;;14.48;3.08;;;2.10;99.20;;;;;;5028684;28;20479;-92
2021/01/06 08:55:20;;;;;;;10.43;1.80;;;2.10;99.30;;;;;;5023944;28;20493;-92
2021/01/06 08:58:00;;;;;;;3.72;1.42;;;2.10;99.30;;;;;;5019791;28;20097;-91
2021/01/06 09:00:31;;;;;;;10.70;2.25;;;2.10;99.40;;;;;;5020174;28;20045;-91
2021/01/06 09:03:06;;;;;;;10.35;1.83;;;2.10;99.40;;;;;;5028105;28;20052;-91
2021/01/06 09:06:11;;;;;;;6.32;2.30;;;2.10;99.60;;;;;;5009013;28;20048;-93
2021/01/06 09:08:37;;;;;;;17.25;2.53;;;2.10;99.60;;;;;;5011592;28;20037;-93
2021/01/06 09:11:27;;;;;;;7.50;2.38;;;2.00;99.40;;;;;;5029122;28;20048;-94
2021/01/06 09:14:00;;;;;;;5.13;2.42;;;2.10;99.80;;;;;;5016108;28;20088;-93
2021/01/06 09:16:48;;;;;;;7.10;2.05;;;2.20;99.80;;;;;;5013349;28;20057;-89
2021/01/06 09:19:28;;;;;;;5.55;1.90;;;2.20;99.70;;;;;;5023231;28;20148;-91
2021/01/06 09:21:55;;;;;;;10.07;2.75;;;2.20;99.40;;;;;;5028998;28;20104;-90
2021/01/06 09:24:26;;;;;;;2.40;1.52;;;2.20;99.30;;;;;;5010824;28;20069;-92
2021/01/06 09:26:59;;;;;;;8.25;1.85;;;2.20;99.20;;;;;;5029044;28;20060;-92
2021/01/06 09:29:27;;;;;;;4.32;1.70;;;2.20;99.10;;;;;;5021236;28;20129;-93
2021/01/06 09:31:57;;;;;;;2.83;1.63;;;2.20;99.10;;;;;;5028804;28;20038;-92
2021/01/06 09:34:36;;;;;;;7.35;2.72;;;2.20;99.00;;;;;;5026998;28;20033;-90
2021/01/06 09:37:04;;;;;;;4.43;2.07;;;2.10;98.90;;;;;;5010363;28;20077;-89
2021/01/06 09:39:33;;;;;;;6.35;1.65;;;2.20;99.00;;;;;;5027680;28;20037;-92
2021/01/06 09:42:01;;;;;;;3.20;2.00;;;2.20;99.00;;;;;;5023033;28;20168;-88
2021/01/06 09:44:30;;;;;;;3.92;1.45;;;2.20;98.80;;;;;;5025257;28;20120;-92
2021/01/06 09:47:19;;;;;;;2.88;1.73;;;2.30;98.90;;;;;;5028937;28;20043;-89
2021/01/06 09:49:48;;;;;;;4.90;2.00;;;2.20;99.00;;;;;;5023650;28;20045;-92
2021/01/06 09:52:35;;;;;;;5.87;1.73;;;2.20;98.90;;;;;;5029660;28;20112;-93
2021/01/06 09:55:05;;;;;;;5.05;1.90;;;2.20;98.70;;;;;;5029580;28;20382;-87
2021/01/06 09:57:32;;;;;;;4.63;1.93;;;2.20;98.50;;;;;;5030577;28;20482;-91
2021/01/06 10:00:07;;;;;;;3.25;1.55;;;2.20;98.70;;;;;;5030655;28;20041;-91
2021/01/06 10:02:36;;;;;;;4.43;1.92;;;2.30;98.50;;;;;;5037518;28;20473;-90
2021/01/06 10:05:35;;;;;;;8.02;2.13;;;2.30;98.60;;;;;;5029973;28;20075;-87
2021/01/06 10:08:19;;;;;;;4.88;1.83;;;2.30;98.70;;;;;;5030517;28;20037;-88
2021/01/06 10:10:49;;;;;;;6.95;1.70;;;2.40;98.70;;;;;;5025962;28;20482;-89
2021/01/06 10:13:32;;;;;;;5.93;2.17;;;2.40;98.50;;;;;;5029638;28;20037;-89
2021/01/06 10:16:28;;;;;;;5.18;2.10;;;2.40;98.40;;;;;;5031910;28;20037;-90
2021/01/06 10:19:03;;;;;;;12.32;1.95;;;2.40;98.60;;;;;;5030809;28;20041;-88
2021/01/06 10:22:03;;;;;;;4.88;1.85;;;2.50;98.60;;;;;;5023314;28;20416;-89
2021/01/06 10:25:01;;;;;;;3.05;2.05;;;2.50;98.30;;;;;;5002713;28;20379;-92
2021/01/06 10:28:01;;;;;;;7.93;1.58;;;2.60;98.70;;;;;;5014249;28;20045;-87
2021/01/06 10:30:30;;;;;;;10.13;1.92;;;2.60;97.90;;;;;;5011600;28;20049;-89
2021/01/06 10:33:29;;;;;;;4.22;1.98;;;2.50;98.00;;;;;;5014240;28;20433;-89
2021/01/06 10:36:07;;;;;;;5.10;2.00;;;2.60;98.20;;;;;;4999615;28;20491;-89
2021/01/06 10:38:42;;;;;;;6.22;1.77;;;2.60;97.90;;;;;;5013379;28;20128;-89
2021/01/06 10:41:24;;;;;;;8.38;2.28;;;2.60;98.00;;;;;;5027454;28;20475;-88
2021/01/06 10:43:54;;;;;;;9.20;1.80;;;2.60;98.00;;;;;;5015435;28;20053;-89
2021/01/06 10:46:34;;;;;;;;;;;2.60;98.10;;;;;;5020497;28;20042;-89
2021/01/06 10:49:01;;;;;;;4.40;2.00;;;2.60;97.80;;;;;;5014357;28;20354;-89
2021/01/06 10:51:50;;;;;;;3.10;1.65;;;2.70;98.00;;;;;;5024820;28;20099;-89
2021/01/06 10:54:38;;;;;;;3.53;1.53;;;2.60;97.80;;;;;;5018389;28;20112;-89
2021/01/06 10:57:27;;;;;;;4.28;1.95;;;2.60;97.70;;;;;;5025929;28;20030;-89
2021/01/06 11:00:19;;;;;;;2.88;1.50;;;2.60;97.70;;;;;;5026298;28;20037;-90
2021/01/06 11:03:36;;;;;;;7.60;1.50;;;2.60;97.90;;;;;;5016874;28;20050;-90
2021/01/06 11:06:30;;;;;;;3.70;1.70;;;2.60;98.00;;;;;;4997981;28;20045;-89
2021/01/06 11:09:23;;;;;;;3.78;1.63;;;2.60;98.30;;;;;;5029697;28;20509;-90
2021/01/06 11:12:00;;;;;;;3.40;1.50;;;2.60;98.50;;;;;;5031583;28;20123;-89
2021/01/06 11:14:50;;;;;;;9.00;2.08;;;2.70;98.20;;;;;;5029048;28;20748;-89
2021/01/06 11:17:18;;;;;;;5.95;1.80;;;2.60;98.40;;;;;;5025928;28;20060;-89
2021/01/06 11:20:00;;;;;;;7.20;1.88;;;2.60;98.60;;;;;;5018615;28;20507;-89
2021/01/06 11:22:44;;;;;;;5.97;2.00;;;2.60;98.70;;;;;;5028322;28;20052;-87
2021/01/06 11:25:28;;;;;;;6.38;1.25;;;2.60;98.60;;;;;;5021218;28;20030;-87
2021/01/06 11:28:03;;;;;;;2.75;1.65;;;2.50;98.70;;;;;;5019170;28;20503;-90
2021/01/06 11:30:34;;;;;;;3.83;1.63;;;2.40;99.20;;;;;;5028315;28;20049;-87
2021/01/06 11:33:15;;;;;;;4.97;2.15;;;2.40;99.50;;;;;;5020715;28;20382;-89
2021/01/06 11:35:46;;;;;;;4.03;2.25;;;2.30;99.80;;;;;;5007980;28;20120;-91
2021/01/06 11:38:37;;;;;;;6.68;2.10;;;2.30;99.90;;;;;;5020546;28;20057;-87
2021/01/06 11:41:03;;;;;;;;;;;2.20;99.90;;;;;;5022967;28;20049;-90
2021/01/06 11:43:47;;;;;;;6.55;1.67;;;2.10;99.90;;;;;;5007526;28;19960;-90
2021/01/06 11:46:25;;;;;;;3.92;1.80;;;2.10;99.90;;;;;;5016172;28;20044;-89
2021/01/06 11:49:09;;;;;;;5.13;2.05;;;2.10;99.90;;;;;;5025142;28;20049;-91
2021/01/06 11:51:36;;;;;;;4.30;1.52;;;2.00;99.90;;;;;;5018821;28;20124;-88
2021/01/06 11:54:18;;;;;;;5.90;2.08;;;2.10;99.90;;;;;;5011206;28;20790;-89
2021/01/06 11:56:50;;;;;;;6.50;1.70;;;2.00;99.90;;;;;;5029504;28;20041;-90
2021/01/06 11:59:47;;;;;;;5.95;1.75;;;2.00;99.90;;;;;;5028463;28;20100;-90
2021/01/06 12:02:28;;;;;;;9.48;1.75;;;2.00;99.90;;;;;;5032638;28;20101;-90
2021/01/06 12:05:14;;;;;;;6.50;1.67;;;2.00;99.90;;;;;;5042887;28;20066;-89
2021/01/06 12:07:59;;;;;;;4.47;1.48;;;2.00;99.90;;;;;;5024905;28;21854;-89
2021/01/06 12:10:36;;;;;;;5.20;1.65;;;2.10;99.90;;;;;;5022094;28;20036;-86
2021/01/06 12:13:14;;;;;;;5.75;2.00;;;2.00;99.90;;;;;;5021723;28;20041;-90
2021/01/06 12:16:10;;;;;;;2.47;1.38;;;2.10;99.90;;;;;;5026623;28;20033;-90
2021/01/06 12:18:54;;;;;;;10.85;1.75;;;2.00;99.90;;;;;;5020856;28;20030;-89
2021/01/06 12:21:35;;;;;;;5.22;1.40;;;2.00;99.90;;;;;;5023287;28;20482;-88
2021/01/06 12:24:18;;;;;;;3.80;0.70;;;2.10;99.90;;;;;;5027787;28;20913;-89
2021/01/06 12:26:50;;;;;;;6.65;1.58;;;2.10;99.90;;;;;;5039275;28;20045;-90
2021/01/06 12:29:19;;;;;;;4.70;1.13;;;2.10;99.90;;;;;;5028143;28;20041;-89
2021/01/06 12:31:54;;;;;;;2.60;0.95;;;2.10;99.90;;;;;;5029921;28;20392;-94
2021/01/06 12:34:31;;;;;;;7.13;1.10;;;2.00;99.90;;;;;;5027611;28;20090;-92
2021/01/06 12:37:03;;;;;;;16.27;2.80;;;2.00;99.90;;;;;;5029221;28;20037;-94
2021/01/06 12:39:47;;;;;;;3.17;1.55;;;2.00;99.90;;;;;;5026491;28;20128;-92
2021/01/06 12:42:13;;;;;;;7.85;1.75;;;2.10;99.90;;;;;;5028997;28;20052;-91
2021/01/06 12:44:44;;;;;;;4.10;1.77;;;2.10;99.90;;;;;;5010065;28;20049;-93
2021/01/06 12:47:19;;;;;;;3.10;1.20;;;2.20;99.90;;;;;;5028118;28;20216;-91
2021/01/06 12:50:12;;;;;;;6.90;1.80;;;2.20;99.90;;;;;;5026751;28;20060;-93
2021/01/06 12:52:43;;;;;;;8.68;1.48;;;2.20;99.90;;;;;;5027674;28;20033;-90
2021/01/06 12:55:09;;;;;;;;;;;2.30;99.90;;;;;;5027534;28;20060;-91
2021/01/06 12:57:46;;;;;;;5.85;1.23;;;2.30;99.90;;;;;;5020261;28;19957;-90
2021/01/06 13:00:41;;;;;;;13.00;1.80;;;2.30;99.90;;;;;;5015439;28;20088;-89
2021/01/06 13:03:25;;;;;;;2.05;1.52;;;2.40;99.90;;;;;;5023879;28;20042;-89
2021/01/06 13:06:42;;;;;;;4.03;1.58;;;2.40;99.90;;;;;;5039685;28;20434;-91
2021/01/06 13:09:11;;;;;;;1.95;1.25;;;2.40;99.90;;;;;;4997790;28;20390;-90
2021/01/06 13:11:37;;;;;;;7.90;1.88;;;2.40;99.90;;;;;;5015004;28;20045;-89
2021/01/06 13:14:23;;;;;;;11.65;2.47;;;2.40;99.90;;;;;;5025624;28;20029;-90
2021/01/06 13:16:54;;;;;;;5.05;1.40;;;2.50;99.90;;;;;;5009770;28;20160;-91
2021/01/06 13:19:35;;;;;;;8.15;2.10;;;2.60;99.90;;;;;;5023000;28;20042;-89
2021/01/06 13:22:30;;;;;;;7.38;1.92;;;2.50;99.90;;;;;;5016748;28;20037;-90
2021/01/06 13:25:11;;;;;;;9.98;2.00;;;2.60;99.90;;;;;;5015528;28;20041;-89
2021/01/06 13:27:52;;;;;;;5.32;1.73;;;2.60;99.90;;;;;;5010829;28;20386;-91
2021/01/06 13:30:43;;;;;;;9.55;1.92;;;2.60;99.90;;;;;;5025293;28;20030;-89
2021/01/06 13:33:38;;;;;;;6.88;1.95;;;2.60;99.90;;;;;;5010327;28;20040;-93
2021/01/06 13:36:12;;;;;;;6.53;1.80;;;2.60;99.90;;;;;;5015857;28;20041;-90
2021/01/06 13:38:54;;;;;;;2.45;1.17;;;2.60;99.90;;;;;;5026163;28;20112;-91
2021/01/06 13:41:45;;;;;;;7.15;1.90;;;2.60;99.90;;;;;;5012266;28;20412;-90
2021/01/06 13:44:17;;;;;;;13.40;2.58;;;2.60;99.90;;;;;;5022346;28;20088;-89
2021/01/06 13:46:48;;;;;;;8.05;1.70;;;2.60;99.90;;;;;;5015211;28;20120;-89